sensor_id;sensor_type;location;lat;lon;timestamp;temperature;humidity
51793;DHT22;37850;53.178;6.376;2023-09-07T00:01:55;21.10;99.90
51793;DHT22;37850;53.178;6.376;2023-09-07T00:04:21;21.00;99.90
51793;DHT22;37850;53.178;6.376;2023-09-07T00:06:49;21.00;99.90
51793;DHT22;37850;53.178;6.376;2023-09-07T00:09:16;21.00;99.90
51793;DHT22;37850;53.178;6.376;2023-09-07T00:11:47;20.90;99.90
51793;DHT22;37850;53.178;6.376;2023-09-07T00:14:15;20.90;99.90
51793;DHT22;37850;53.178;6.376;2023-09-07T00:16:41;20.80;99.90
51793;DHT22;37850;53.178;6.376;2023-09-07T00:19:07;20.80;99.90
51793;DHT22;37850;53.178;6.376;2023-09-07T00:21:33;20.80;99.90
51793;DHT22;37850;53.178;6.376;2023-09-07T00:23:59;20.70;99.90
51793;DHT22;37850;53.178;6.376;2023-09-07T00:26:24;20.70;99.90
51793;DHT22;37850;53.178;6.376;2023-09-07T00:28:50;20.60;99.90
51793;DHT22;37850;53.178;6.376;2023-09-07T00:31:16;20.60;99.90
51793;DHT22;37850;53.178;6.376;2023-09-07T00:33:41;20.50;99.90
51793;DHT22;37850;53.178;6.376;2023-09-07T00:36:07;20.50;99.90
51793;DHT22;37850;53.178;6.376;2023-09-07T00:38:33;20.40;99.90
51793;DHT22;37850;53.178;6.376;2023-09-07T00:40:58;20.40;99.90
51793;DHT22;37850;53.178;6.376;2023-09-07T00:43:24;20.30;99.90
51793;DHT22;37850;53.178;6.376;2023-09-07T00:45:50;20.30;99.90
51793;DHT22;37850;53.178;6.376;2023-09-07T00:48:16;20.20;99.90
51793;DHT22;37850;53.178;6.376;2023-09-07T00:50:45;20.20;99.90
51793;DHT22;37850;53.178;6.376;2023-09-07T00:53:11;20.10;99.90
51793;DHT22;37850;53.178;6.376;2023-09-07T00:55:37;20.10;99.90
51793;DHT22;37850;53.178;6.376;2023-09-07T00:58:04;20.10;99.90
51793;DHT22;37850;53.178;6.376;2023-09-07T01:00:30;20.10;99.90
51793;DHT22;37850;53.178;6.376;2023-09-07T01:02:56;20.10;99.90
51793;DHT22;37850;53.178;6.376;2023-09-07T01:05:27;20.00;99.90
51793;DHT22;37850;53.178;6.376;2023-09-07T01:07:59;20.00;99.90
51793;DHT22;37850;53.178;6.376;2023-09-07T01:10:28;19.90;99.90
51793;DHT22;37850;53.178;6.376;2023-09-07T01:12:54;19.90;99.90
51793;DHT22;37850;53.178;6.376;2023-09-07T01:15:20;19.80;99.90
51793;DHT22;37850;53.178;6.376;2023-09-07T01:17:46;19.80;99.90
51793;DHT22;37850;53.178;6.376;2023-09-07T01:20:13;19.80;99.90
51793;DHT22;37850;53.178;6.376;2023-09-07T01:22:39;19.80;99.90
51793;DHT22;37850;53.178;6.376;2023-09-07T01:25:06;19.70;99.90
51793;DHT22;37850;53.178;6.376;2023-09-07T01:27:33;19.70;99.90
51793;DHT22;37850;53.178;6.376;2023-09-07T01:29:58;19.70;99.90
51793;DHT22;37850;53.178;6.376;2023-09-07T01:32:24;19.70;99.90
51793;DHT22;37850;53.178;6.376;2023-09-07T01:34:55;19.60;99.90
51793;DHT22;37850;53.178;6.376;2023-09-07T01:37:22;19.60;99.90
51793;DHT22;37850;53.178;6.376;2023-09-07T01:39:48;19.60;99.90
51793;DHT22;37850;53.178;6.376;2023-09-07T01:42:14;19.60;99.90
51793;DHT22;37850;53.178;6.376;2023-09-07T01:44:40;19.50;99.90
51793;DHT22;37850;53.178;6.376;2023-09-07T01:47:06;19.50;99.90
51793;DHT22;37850;53.178;6.376;2023-09-07T01:49:32;19.50;99.90
51793;DHT22;37850;53.178;6.376;2023-09-07T01:51:57;19.40;99.90
51793;DHT22;37850;53.178;6.376;2023-09-07T01:54:23;19.40;99.90
51793;DHT22;37850;53.178;6.376;2023-09-07T01:56:49;19.40;99.90
51793;DHT22;37850;53.178;6.376;2023-09-07T01:59:14;19.30;99.90
51793;DHT22;37850;53.178;6.376;2023-09-07T02:01:40;19.30;99.90
51793;DHT22;37850;53.178;6.376;2023-09-07T02:04:06;19.30;99.90
51793;DHT22;37850;53.178;6.376;2023-09-07T02:06:32;19.30;99.90
51793;DHT22;37850;53.178;6.376;2023-09-07T02:08:57;19.20;99.90
51793;DHT22;37850;53.178;6.376;2023-09-07T02:11:23;19.20;99.90
51793;DHT22;37850;53.178;6.376;2023-09-07T02:13:49;19.20;99.90
51793;DHT22;37850;53.178;6.376;2023-09-07T02:16:15;19.20;99.90
51793;DHT22;37850;53.178;6.376;2023-09-07T02:18:42;19.10;99.90
51793;DHT22;37850;53.178;6.376;2023-09-07T02:21:13;19.10;99.90
51793;DHT22;37850;53.178;6.376;2023-09-07T02:23:39;19.10;99.90
51793;DHT22;37850;53.178;6.376;2023-09-07T02:26:04;19.00;99.90
51793;DHT22;37850;53.178;6.376;2023-09-07T02:28:30;19.00;99.90
51793;DHT22;37850;53.178;6.376;2023-09-07T02:31:05;19.00;99.90
51793;DHT22;37850;53.178;6.376;2023-09-07T02:33:32;19.00;99.90
51793;DHT22;37850;53.178;6.376;2023-09-07T02:35:58;18.90;99.90
51793;DHT22;37850;53.178;6.376;2023-09-07T02:38:24;18.90;99.90
51793;DHT22;37850;53.178;6.376;2023-09-07T02:40:50;18.90;99.90
51793;DHT22;37850;53.178;6.376;2023-09-07T02:43:16;18.80;99.90
51793;DHT22;37850;53.178;6.376;2023-09-07T02:45:42;18.80;99.90
51793;DHT22;37850;53.178;6.376;2023-09-07T02:48:08;18.80;99.90
51793;DHT22;37850;53.178;6.376;2023-09-07T02:50:34;18.80;99.90
51793;DHT22;37850;53.178;6.376;2023-09-07T02:53:01;18.70;99.90
51793;DHT22;37850;53.178;6.376;2023-09-07T02:55:27;18.70;99.90
51793;DHT22;37850;53.178;6.376;2023-09-07T02:57:53;18.70;99.90
51793;DHT22;37850;53.178;6.376;2023-09-07T03:00:21;18.70;99.90
51793;DHT22;37850;53.178;6.376;2023-09-07T03:02:47;18.60;99.90
51793;DHT22;37850;53.178;6.376;2023-09-07T03:05:17;18.70;99.90
51793;DHT22;37850;53.178;6.376;2023-09-07T03:07:45;18.60;99.90
51793;DHT22;37850;53.178;6.376;2023-09-07T03:10:11;18.70;99.90
51793;DHT22;37850;53.178;6.376;2023-09-07T03:12:37;18.60;99.90
51793;DHT22;37850;53.178;6.376;2023-09-07T03:15:04;18.60;99.90
51793;DHT22;37850;53.178;6.376;2023-09-07T03:17:30;18.60;99.90
51793;DHT22;37850;53.178;6.376;2023-09-07T03:19:56;18.60;99.90
51793;DHT22;37850;53.178;6.376;2023-09-07T03:22:24;18.50;99.90
51793;DHT22;37850;53.178;6.376;2023-09-07T03:24:51;18.50;99.90
51793;DHT22;37850;53.178;6.376;2023-09-07T03:27:17;18.40;99.90
51793;DHT22;37850;53.178;6.376;2023-09-07T03:29:45;18.50;99.90
51793;DHT22;37850;53.178;6.376;2023-09-07T03:32:11;18.40;99.90
51793;DHT22;37850;53.178;6.376;2023-09-07T03:34:37;18.40;99.90
51793;DHT22;37850;53.178;6.376;2023-09-07T03:37:02;18.40;99.90
51793;DHT22;37850;53.178;6.376;2023-09-07T03:39:32;18.40;99.90
51793;DHT22;37850;53.178;6.376;2023-09-07T03:41:57;18.30;99.90
51793;DHT22;37850;53.178;6.376;2023-09-07T03:44:23;18.30;99.90
51793;DHT22;37850;53.178;6.376;2023-09-07T03:46:49;18.30;99.90
51793;DHT22;37850;53.178;6.376;2023-09-07T03:49:15;18.30;99.90
51793;DHT22;37850;53.178;6.376;2023-09-07T03:51:41;18.30;99.90
51793;DHT22;37850;53.178;6.376;2023-09-07T03:54:06;18.30;99.90
51793;DHT22;37850;53.178;6.376;2023-09-07T03:56:32;18.20;99.90
51793;DHT22;37850;53.178;6.376;2023-09-07T03:58:58;18.20;99.90
51793;DHT22;37850;53.178;6.376;2023-09-07T04:01:23;18.20;99.90
51793;DHT22;37850;53.178;6.376;2023-09-07T04:03:49;18.20;99.90
51793;DHT22;37850;53.178;6.376;2023-09-07T04:06:15;18.10;99.90
51793;DHT22;37850;53.178;6.376;2023-09-07T04:08:41;18.20;99.90
51793;DHT22;37850;53.178;6.376;2023-09-07T04:11:07;18.10;99.90
51793;DHT22;37850;53.178;6.376;2023-09-07T04:13:33;18.20;99.90
51793;DHT22;37850;53.178;6.376;2023-09-07T04:15:58;18.10;99.90
51793;DHT22;37850;53.178;6.376;2023-09-07T04:18:24;18.10;99.90
51793;DHT22;37850;53.178;6.376;2023-09-07T04:20:50;18.10;99.90
51793;DHT22;37850;53.178;6.376;2023-09-07T04:23:16;18.10;99.90
51793;DHT22;37850;53.178;6.376;2023-09-07T04:25:41;18.10;99.90
51793;DHT22;37850;53.178;6.376;2023-09-07T04:28:08;18.10;99.90
51793;DHT22;37850;53.178;6.376;2023-09-07T04:30:43;18.00;99.90
51793;DHT22;37850;53.178;6.376;2023-09-07T04:33:09;18.00;99.90
51793;DHT22;37850;53.178;6.376;2023-09-07T04:35:34;18.00;99.90
51793;DHT22;37850;53.178;6.376;2023-09-07T04:38:00;18.00;99.90
51793;DHT22;37850;53.178;6.376;2023-09-07T04:40:26;18.00;99.90
51793;DHT22;37850;53.178;6.376;2023-09-07T04:42:52;18.00;99.90
51793;DHT22;37850;53.178;6.376;2023-09-07T04:45:17;18.00;99.90
51793;DHT22;37850;53.178;6.376;2023-09-07T04:47:43;17.90;99.90
51793;DHT22;37850;53.178;6.376;2023-09-07T04:50:09;17.90;99.90
51793;DHT22;37850;53.178;6.376;2023-09-07T04:52:35;17.90;99.90
51793;DHT22;37850;53.178;6.376;2023-09-07T04:55:02;17.80;99.90
51793;DHT22;37850;53.178;6.376;2023-09-07T04:57:30;17.80;99.90
51793;DHT22;37850;53.178;6.376;2023-09-07T04:59:55;17.80;99.90
51793;DHT22;37850;53.178;6.376;2023-09-07T05:02:21;17.80;99.90
51793;DHT22;37850;53.178;6.376;2023-09-07T05:04:47;17.80;99.90
51793;DHT22;37850;53.178;6.376;2023-09-07T05:07:13;17.80;99.90
51793;DHT22;37850;53.178;6.376;2023-09-07T05:09:38;17.70;99.90
51793;DHT22;37850;53.178;6.376;2023-09-07T05:12:04;17.80;99.90
51793;DHT22;37850;53.178;6.376;2023-09-07T05:14:30;17.70;99.90
51793;DHT22;37850;53.178;6.376;2023-09-07T05:16:56;17.70;99.90
51793;DHT22;37850;53.178;6.376;2023-09-07T05:19:23;17.70;99.90
51793;DHT22;37850;53.178;6.376;2023-09-07T05:21:49;17.70;99.90
51793;DHT22;37850;53.178;6.376;2023-09-07T05:24:15;17.70;99.90
51793;DHT22;37850;53.178;6.376;2023-09-07T05:26:42;17.70;99.90
51793;DHT22;37850;53.178;6.376;2023-09-07T05:29:10;17.60;99.90
51793;DHT22;37850;53.178;6.376;2023-09-07T05:31:36;17.60;99.90
51793;DHT22;37850;53.178;6.376;2023-09-07T05:34:02;17.60;99.90
51793;DHT22;37850;53.178;6.376;2023-09-07T05:36:28;17.60;99.90
51793;DHT22;37850;53.178;6.376;2023-09-07T05:38:54;17.60;99.90
51793;DHT22;37850;53.178;6.376;2023-09-07T05:41:20;17.60;99.90
51793;DHT22;37850;53.178;6.376;2023-09-07T05:43:46;17.60;99.90
51793;DHT22;37850;53.178;6.376;2023-09-07T05:46:11;17.60;99.90
51793;DHT22;37850;53.178;6.376;2023-09-07T05:48:37;17.60;99.90
51793;DHT22;37850;53.178;6.376;2023-09-07T05:51:03;17.70;99.90
51793;DHT22;37850;53.178;6.376;2023-09-07T05:53:29;17.80;99.90
51793;DHT22;37850;53.178;6.376;2023-09-07T05:55:54;17.80;99.90
51793;DHT22;37850;53.178;6.376;2023-09-07T05:58:20;17.90;99.90
51793;DHT22;37850;53.178;6.376;2023-09-07T06:00:46;17.90;99.90
51793;DHT22;37850;53.178;6.376;2023-09-07T06:03:14;17.90;99.90
51793;DHT22;37850;53.178;6.376;2023-09-07T06:05:40;18.00;99.90
51793;DHT22;37850;53.178;6.376;2023-09-07T06:08:06;18.00;99.90
51793;DHT22;37850;53.178;6.376;2023-09-07T06:10:33;18.00;99.90
51793;DHT22;37850;53.178;6.376;2023-09-07T06:12:59;17.90;99.90
51793;DHT22;37850;53.178;6.376;2023-09-07T06:15:25;18.00;99.90
51793;DHT22;37850;53.178;6.376;2023-09-07T06:17:51;18.00;99.90
51793;DHT22;37850;53.178;6.376;2023-09-07T06:20:17;18.00;99.90
51793;DHT22;37850;53.178;6.376;2023-09-07T06:22:45;18.00;99.90
51793;DHT22;37850;53.178;6.376;2023-09-07T06:25:11;18.00;99.90
51793;DHT22;37850;53.178;6.376;2023-09-07T06:27:37;18.10;99.90
51793;DHT22;37850;53.178;6.376;2023-09-07T06:30:07;18.10;99.90
51793;DHT22;37850;53.178;6.376;2023-09-07T06:32:33;18.10;99.90
51793;DHT22;37850;53.178;6.376;2023-09-07T06:34:59;18.20;99.90
51793;DHT22;37850;53.178;6.376;2023-09-07T06:37:25;18.20;99.90
51793;DHT22;37850;53.178;6.376;2023-09-07T06:39:51;18.20;99.90
51793;DHT22;37850;53.178;6.376;2023-09-07T06:42:17;18.20;99.90
51793;DHT22;37850;53.178;6.376;2023-09-07T06:44:43;18.20;99.90
51793;DHT22;37850;53.178;6.376;2023-09-07T06:47:09;18.30;99.90
51793;DHT22;37850;53.178;6.376;2023-09-07T06:49:37;18.30;99.90
51793;DHT22;37850;53.178;6.376;2023-09-07T06:52:03;18.40;99.90
51793;DHT22;37850;53.178;6.376;2023-09-07T06:54:29;18.40;99.90
51793;DHT22;37850;53.178;6.376;2023-09-07T06:56:55;18.50;99.90
51793;DHT22;37850;53.178;6.376;2023-09-07T06:59:21;18.50;99.90
51793;DHT22;37850;53.178;6.376;2023-09-07T07:01:46;18.60;99.90
51793;DHT22;37850;53.178;6.376;2023-09-07T07:04:13;18.60;99.90
51793;DHT22;37850;53.178;6.376;2023-09-07T07:06:39;18.70;99.90
51793;DHT22;37850;53.178;6.376;2023-09-07T07:09:05;18.70;99.90
51793;DHT22;37850;53.178;6.376;2023-09-07T07:11:30;18.80;99.90
51793;DHT22;37850;53.178;6.376;2023-09-07T07:13:56;18.90;99.90
51793;DHT22;37850;53.178;6.376;2023-09-07T07:16:22;18.90;99.90
51793;DHT22;37850;53.178;6.376;2023-09-07T07:18:48;19.00;99.90
51793;DHT22;37850;53.178;6.376;2023-09-07T07:21:13;19.10;99.90
51793;DHT22;37850;53.178;6.376;2023-09-07T07:23:39;19.10;99.90
51793;DHT22;37850;53.178;6.376;2023-09-07T07:26:05;19.30;99.90
51793;DHT22;37850;53.178;6.376;2023-09-07T07:28:31;19.40;99.90
51793;DHT22;37850;53.178;6.376;2023-09-07T07:30:56;19.50;99.90
51793;DHT22;37850;53.178;6.376;2023-09-07T07:33:22;19.70;99.90
51793;DHT22;37850;53.178;6.376;2023-09-07T07:35:48;19.90;99.90
51793;DHT22;37850;53.178;6.376;2023-09-07T07:38:14;20.10;99.90
51793;DHT22;37850;53.178;6.376;2023-09-07T07:40:40;20.30;99.90
51793;DHT22;37850;53.178;6.376;2023-09-07T07:43:06;20.60;99.90
51793;DHT22;37850;53.178;6.376;2023-09-07T07:45:32;20.70;99.90
51793;DHT22;37850;53.178;6.376;2023-09-07T07:48:02;20.80;99.90
51793;DHT22;37850;53.178;6.376;2023-09-07T07:50:30;21.00;99.90
51793;DHT22;37850;53.178;6.376;2023-09-07T07:52:57;21.10;99.90
51793;DHT22;37850;53.178;6.376;2023-09-07T07:55:22;21.30;99.90
51793;DHT22;37850;53.178;6.376;2023-09-07T07:57:48;21.40;99.90
51793;DHT22;37850;53.178;6.376;2023-09-07T08:00:14;21.60;99.90
51793;DHT22;37850;53.178;6.376;2023-09-07T08:02:40;21.70;99.90
51793;DHT22;37850;53.178;6.376;2023-09-07T08:05:06;21.80;99.90
51793;DHT22;37850;53.178;6.376;2023-09-07T08:07:31;21.90;99.90
51793;DHT22;37850;53.178;6.376;2023-09-07T08:09:57;22.00;99.90
51793;DHT22;37850;53.178;6.376;2023-09-07T08:12:23;22.20;99.90
51793;DHT22;37850;53.178;6.376;2023-09-07T08:14:49;22.20;99.90
51793;DHT22;37850;53.178;6.376;2023-09-07T08:17:15;22.40;99.90
51793;DHT22;37850;53.178;6.376;2023-09-07T08:19:40;22.50;99.90
51793;DHT22;37850;53.178;6.376;2023-09-07T08:22:06;22.50;99.90
51793;DHT22;37850;53.178;6.376;2023-09-07T08:24:32;22.70;99.90
51793;DHT22;37850;53.178;6.376;2023-09-07T08:26:58;22.80;99.90
51793;DHT22;37850;53.178;6.376;2023-09-07T08:29:26;22.90;99.90
51793;DHT22;37850;53.178;6.376;2023-09-07T08:31:55;23.00;99.90
51793;DHT22;37850;53.178;6.376;2023-09-07T08:34:21;23.00;99.90
51793;DHT22;37850;53.178;6.376;2023-09-07T08:36:49;23.10;99.90
51793;DHT22;37850;53.178;6.376;2023-09-07T08:39:16;23.20;99.90
51793;DHT22;37850;53.178;6.376;2023-09-07T08:41:43;23.30;99.90
51793;DHT22;37850;53.178;6.376;2023-09-07T08:44:10;23.40;99.90
51793;DHT22;37850;53.178;6.376;2023-09-07T08:46:40;23.50;99.90
51793;DHT22;37850;53.178;6.376;2023-09-07T08:49:06;23.50;99.90
51793;DHT22;37850;53.178;6.376;2023-09-07T08:51:32;23.60;99.90
51793;DHT22;37850;53.178;6.376;2023-09-07T08:54:00;23.70;99.90
51793;DHT22;37850;53.178;6.376;2023-09-07T08:56:26;23.70;99.90
51793;DHT22;37850;53.178;6.376;2023-09-07T08:58:51;23.80;99.90
51793;DHT22;37850;53.178;6.376;2023-09-07T09:01:18;23.90;99.90
51793;DHT22;37850;53.178;6.376;2023-09-07T09:03:44;24.00;99.90
51793;DHT22;37850;53.178;6.376;2023-09-07T09:06:11;24.00;99.90
51793;DHT22;37850;53.178;6.376;2023-09-07T09:11:16;24.20;99.90
51793;DHT22;37850;53.178;6.376;2023-09-07T09:13:43;24.20;99.90
51793;DHT22;37850;53.178;6.376;2023-09-07T09:16:10;24.30;99.90
51793;DHT22;37850;53.178;6.376;2023-09-07T09:18:36;24.40;99.90
51793;DHT22;37850;53.178;6.376;2023-09-07T09:21:03;24.50;99.90
51793;DHT22;37850;53.178;6.376;2023-09-07T09:23:36;24.60;99.90
51793;DHT22;37850;53.178;6.376;2023-09-07T09:26:03;24.60;99.90
51793;DHT22;37850;53.178;6.376;2023-09-07T09:28:34;24.70;99.90
51793;DHT22;37850;53.178;6.376;2023-09-07T09:31:01;24.80;99.90
51793;DHT22;37850;53.178;6.376;2023-09-07T09:33:32;24.90;99.90
51793;DHT22;37850;53.178;6.376;2023-09-07T09:35:59;25.00;99.90
51793;DHT22;37850;53.178;6.376;2023-09-07T09:38:25;25.00;99.90
51793;DHT22;37850;53.178;6.376;2023-09-07T09:40:52;25.10;99.90
51793;DHT22;37850;53.178;6.376;2023-09-07T09:43:20;25.20;99.90
51793;DHT22;37850;53.178;6.376;2023-09-07T09:45:46;25.20;99.90
51793;DHT22;37850;53.178;6.376;2023-09-07T09:48:13;25.30;99.90
51793;DHT22;37850;53.178;6.376;2023-09-07T09:50:40;25.30;99.90
51793;DHT22;37850;53.178;6.376;2023-09-07T09:53:07;25.40;99.90
51793;DHT22;37850;53.178;6.376;2023-09-07T09:55:36;25.40;99.90
51793;DHT22;37850;53.178;6.376;2023-09-07T09:58:04;25.50;99.90
51793;DHT22;37850;53.178;6.376;2023-09-07T10:00:30;25.50;99.90
51793;DHT22;37850;53.178;6.376;2023-09-07T10:03:08;25.50;99.90
51793;DHT22;37850;53.178;6.376;2023-09-07T10:05:38;25.60;99.90
51793;DHT22;37850;53.178;6.376;2023-09-07T10:08:14;25.60;99.90
51793;DHT22;37850;53.178;6.376;2023-09-07T10:10:46;25.70;99.90
51793;DHT22;37850;53.178;6.376;2023-09-07T10:13:16;25.70;99.90
51793;DHT22;37850;53.178;6.376;2023-09-07T10:15:44;25.80;99.90
51793;DHT22;37850;53.178;6.376;2023-09-07T10:18:15;25.90;99.90
51793;DHT22;37850;53.178;6.376;2023-09-07T10:20:55;25.90;99.90
51793;DHT22;37850;53.178;6.376;2023-09-07T10:23:22;26.00;99.90
51793;DHT22;37850;53.178;6.376;2023-09-07T10:25:52;26.00;99.90
51793;DHT22;37850;53.178;6.376;2023-09-07T10:28:23;26.00;99.90
51793;DHT22;37850;53.178;6.376;2023-09-07T10:31:01;26.10;99.90
51793;DHT22;37850;53.178;6.376;2023-09-07T10:33:30;26.10;99.90
51793;DHT22;37850;53.178;6.376;2023-09-07T10:35:55;26.10;99.90
51793;DHT22;37850;53.178;6.376;2023-09-07T10:38:22;26.10;99.90
51793;DHT22;37850;53.178;6.376;2023-09-07T10:40:49;26.20;99.90
51793;DHT22;37850;53.178;6.376;2023-09-07T10:43:20;26.30;99.90
51793;DHT22;37850;53.178;6.376;2023-09-07T10:45:45;26.30;99.90
51793;DHT22;37850;53.178;6.376;2023-09-07T10:48:15;26.30;99.90
51793;DHT22;37850;53.178;6.376;2023-09-07T10:50:43;26.40;99.90
51793;DHT22;37850;53.178;6.376;2023-09-07T10:53:11;26.40;99.90
51793;DHT22;37850;53.178;6.376;2023-09-07T10:55:37;26.50;99.90
51793;DHT22;37850;53.178;6.376;2023-09-07T10:58:07;26.50;99.90
51793;DHT22;37850;53.178;6.376;2023-09-07T11:00:34;26.50;99.90
51793;DHT22;37850;53.178;6.376;2023-09-07T11:03:07;26.50;99.90
51793;DHT22;37850;53.178;6.376;2023-09-07T11:05:35;26.60;99.90
51793;DHT22;37850;53.178;6.376;2023-09-07T11:08:04;26.70;99.90
51793;DHT22;37850;53.178;6.376;2023-09-07T11:10:36;26.70;99.90
51793;DHT22;37850;53.178;6.376;2023-09-07T11:13:05;26.70;99.90
51793;DHT22;37850;53.178;6.376;2023-09-07T11:15:33;26.80;99.90
51793;DHT22;37850;53.178;6.376;2023-09-07T11:18:08;26.90;99.90
51793;DHT22;37850;53.178;6.376;2023-09-07T11:20:35;26.90;99.90
51793;DHT22;37850;53.178;6.376;2023-09-07T11:23:02;26.90;99.90
51793;DHT22;37850;53.178;6.376;2023-09-07T11:25:38;27.00;99.90
51793;DHT22;37850;53.178;6.376;2023-09-07T11:28:08;27.00;99.90
51793;DHT22;37850;53.178;6.376;2023-09-07T11:30:34;27.10;99.90
51793;DHT22;37850;53.178;6.376;2023-09-07T11:33:01;27.10;99.90
51793;DHT22;37850;53.178;6.376;2023-09-07T11:35:27;27.20;99.90
51793;DHT22;37850;53.178;6.376;2023-09-07T11:37:53;27.20;99.90
51793;DHT22;37850;53.178;6.376;2023-09-07T11:40:19;27.20;99.90
51793;DHT22;37850;53.178;6.376;2023-09-07T11:42:45;27.30;99.90
51793;DHT22;37850;53.178;6.376;2023-09-07T11:45:11;27.40;99.90
51793;DHT22;37850;53.178;6.376;2023-09-07T11:47:39;27.30;99.90
51793;DHT22;37850;53.178;6.376;2023-09-07T11:50:05;27.40;99.90
51793;DHT22;37850;53.178;6.376;2023-09-07T11:52:32;27.40;99.90
51793;DHT22;37850;53.178;6.376;2023-09-07T11:54:58;27.50;99.90
51793;DHT22;37850;53.178;6.376;2023-09-07T11:57:24;27.50;99.90
51793;DHT22;37850;53.178;6.376;2023-09-07T11:59:50;27.50;99.90
51793;DHT22;37850;53.178;6.376;2023-09-07T12:02:16;27.60;99.90
51793;DHT22;37850;53.178;6.376;2023-09-07T12:04:43;27.60;99.90
51793;DHT22;37850;53.178;6.376;2023-09-07T12:07:10;27.70;99.90
51793;DHT22;37850;53.178;6.376;2023-09-07T12:09:35;27.70;99.90
51793;DHT22;37850;53.178;6.376;2023-09-07T12:12:02;27.80;99.90
51793;DHT22;37850;53.178;6.376;2023-09-07T12:14:29;27.80;99.90
51793;DHT22;37850;53.178;6.376;2023-09-07T12:16:54;27.80;99.90
51793;DHT22;37850;53.178;6.376;2023-09-07T12:19:20;27.90;99.90
51793;DHT22;37850;53.178;6.376;2023-09-07T12:21:46;27.90;99.90
51793;DHT22;37850;53.178;6.376;2023-09-07T12:24:12;28.00;99.90
51793;DHT22;37850;53.178;6.376;2023-09-07T12:26:38;28.00;99.70
51793;DHT22;37850;53.178;6.376;2023-09-07T12:29:04;28.10;99.60
51793;DHT22;37850;53.178;6.376;2023-09-07T12:31:30;28.10;99.40
51793;DHT22;37850;53.178;6.376;2023-09-07T12:33:57;28.10;99.60
51793;DHT22;37850;53.178;6.376;2023-09-07T12:36:22;28.10;99.90
51793;DHT22;37850;53.178;6.376;2023-09-07T12:38:48;28.20;99.20
51793;DHT22;37850;53.178;6.376;2023-09-07T12:41:16;28.20;98.90
51793;DHT22;37850;53.178;6.376;2023-09-07T12:43:45;28.30;97.90
51793;DHT22;37850;53.178;6.376;2023-09-07T12:46:11;28.30;98.20
51793;DHT22;37850;53.178;6.376;2023-09-07T12:48:38;28.30;98.60
51793;DHT22;37850;53.178;6.376;2023-09-07T12:51:04;28.30;96.10
51793;DHT22;37850;53.178;6.376;2023-09-07T12:53:29;28.30;97.20
51793;DHT22;37850;53.178;6.376;2023-09-07T12:55:55;28.30;96.70
51793;DHT22;37850;53.178;6.376;2023-09-07T12:58:21;28.30;97.60
51793;DHT22;37850;53.178;6.376;2023-09-07T13:00:47;28.40;96.90
51793;DHT22;37850;53.178;6.376;2023-09-07T13:03:14;28.40;97.10
51793;DHT22;37850;53.178;6.376;2023-09-07T13:05:40;28.40;96.30
51793;DHT22;37850;53.178;6.376;2023-09-07T13:08:06;28.40;96.80
51793;DHT22;37850;53.178;6.376;2023-09-07T13:10:32;28.40;96.80
51793;DHT22;37850;53.178;6.376;2023-09-07T13:12:58;28.40;96.80
51793;DHT22;37850;53.178;6.376;2023-09-07T13:15:24;28.50;96.70
51793;DHT22;37850;53.178;6.376;2023-09-07T13:17:56;28.50;96.60
51793;DHT22;37850;53.178;6.376;2023-09-07T13:20:22;28.50;97.50
51793;DHT22;37850;53.178;6.376;2023-09-07T13:22:48;28.60;96.10
51793;DHT22;37850;53.178;6.376;2023-09-07T13:25:13;28.60;97.00
51793;DHT22;37850;53.178;6.376;2023-09-07T13:27:39;28.60;96.30
51793;DHT22;37850;53.178;6.376;2023-09-07T13:30:05;28.60;96.10
51793;DHT22;37850;53.178;6.376;2023-09-07T13:32:34;28.60;96.40
51793;DHT22;37850;53.178;6.376;2023-09-07T13:35:00;28.70;96.30
51793;DHT22;37850;53.178;6.376;2023-09-07T13:37:26;28.70;95.80
51793;DHT22;37850;53.178;6.376;2023-09-07T13:39:52;28.70;96.60
51793;DHT22;37850;53.178;6.376;2023-09-07T13:42:17;28.70;96.20
51793;DHT22;37850;53.178;6.376;2023-09-07T13:44:43;28.70;95.80
51793;DHT22;37850;53.178;6.376;2023-09-07T13:47:11;28.70;96.00
51793;DHT22;37850;53.178;6.376;2023-09-07T13:49:37;28.70;96.40
51793;DHT22;37850;53.178;6.376;2023-09-07T13:52:02;28.80;96.70
51793;DHT22;37850;53.178;6.376;2023-09-07T13:54:28;28.70;97.00
51793;DHT22;37850;53.178;6.376;2023-09-07T13:56:54;28.70;97.10
51793;DHT22;37850;53.178;6.376;2023-09-07T13:59:20;28.80;95.80
51793;DHT22;37850;53.178;6.376;2023-09-07T14:01:46;28.70;95.30
51793;DHT22;37850;53.178;6.376;2023-09-07T14:04:12;28.70;95.40
51793;DHT22;37850;53.178;6.376;2023-09-07T14:06:41;28.70;95.50
51793;DHT22;37850;53.178;6.376;2023-09-07T14:09:06;28.70;95.60
51793;DHT22;37850;53.178;6.376;2023-09-07T14:11:32;28.70;95.70
51793;DHT22;37850;53.178;6.376;2023-09-07T14:13:59;28.70;95.80
51793;DHT22;37850;53.178;6.376;2023-09-07T14:16:24;28.70;96.50
51793;DHT22;37850;53.178;6.376;2023-09-07T14:18:50;28.70;96.60
51793;DHT22;37850;53.178;6.376;2023-09-07T14:21:16;28.70;96.40
51793;DHT22;37850;53.178;6.376;2023-09-07T14:23:43;28.70;96.40
51793;DHT22;37850;53.178;6.376;2023-09-07T14:26:09;28.70;96.10
51793;DHT22;37850;53.178;6.376;2023-09-07T14:28:35;28.70;95.50
51793;DHT22;37850;53.178;6.376;2023-09-07T14:31:03;28.70;95.60
51793;DHT22;37850;53.178;6.376;2023-09-07T14:33:31;28.70;95.80
51793;DHT22;37850;53.178;6.376;2023-09-07T14:35:58;28.70;95.80
51793;DHT22;37850;53.178;6.376;2023-09-07T14:38:24;28.70;95.60
51793;DHT22;37850;53.178;6.376;2023-09-07T14:40:53;28.70;95.90
51793;DHT22;37850;53.178;6.376;2023-09-07T14:43:22;28.70;96.40
51793;DHT22;37850;53.178;6.376;2023-09-07T14:45:48;28.70;96.10
51793;DHT22;37850;53.178;6.376;2023-09-07T14:48:14;28.70;95.60
51793;DHT22;37850;53.178;6.376;2023-09-07T14:50:40;28.70;95.80
51793;DHT22;37850;53.178;6.376;2023-09-07T14:53:06;28.70;95.60
51793;DHT22;37850;53.178;6.376;2023-09-07T14:55:32;28.70;95.50
51793;DHT22;37850;53.178;6.376;2023-09-07T14:57:58;28.60;95.20
51793;DHT22;37850;53.178;6.376;2023-09-07T15:00:24;28.60;95.70
51793;DHT22;37850;53.178;6.376;2023-09-07T15:02:53;28.60;95.60
51793;DHT22;37850;53.178;6.376;2023-09-07T15:05:19;28.60;95.10
51793;DHT22;37850;53.178;6.376;2023-09-07T15:07:44;28.60;95.40
51793;DHT22;37850;53.178;6.376;2023-09-07T15:10:10;28.60;95.40
51793;DHT22;37850;53.178;6.376;2023-09-07T15:12:36;28.60;95.60
51793;DHT22;37850;53.178;6.376;2023-09-07T15:15:02;28.60;95.70
51793;DHT22;37850;53.178;6.376;2023-09-07T15:17:28;28.60;95.80
51793;DHT22;37850;53.178;6.376;2023-09-07T15:19:54;28.60;95.90
51793;DHT22;37850;53.178;6.376;2023-09-07T15:22:20;28.60;95.90
51793;DHT22;37850;53.178;6.376;2023-09-07T15:24:46;28.60;95.90
51793;DHT22;37850;53.178;6.376;2023-09-07T15:27:12;28.60;96.10
51793;DHT22;37850;53.178;6.376;2023-09-07T15:29:39;28.60;95.90